aviador You're here:

KSTP Decoded Metar

ST. PAUL in MN, USA
Report Time2017-11-24 23:53:00
UTC Time2017-11-25 00:16:34
Flight Rules vfr VFR
Wind300° at 10 kt
W.Decomp.*RWY 31: 9.7 kt HW 2.2 kt LCW
RWY 32: 9.2 kt HW 3.9 kt LCW
RWY 27: 8.9 kt HW 4.5 kt RCW
W.Rank300° ranks 8
Current wind is below 300° avg. (10.8)
Visibility9999 m
Phenomena:N/A
Clouds:N/A
Expected CloudBase > 1,600 ft AGL from Temp-Dew spread
CeilingNone
Temp08°C (ISA -6)
Dew Point04°C (76% RH)
AAT3.1°C
QNH1001 hPa
Density Alt574 ft
Elevation719 ft
Report Wrong Elevation
Raw Report
METAR KSTP 242353Z 30010KT 10SM CLR 08/04 A2957 RMK AO2 SLP017 60000
T00830044 10150 20078 51059=

Extra information for KSTP:More info

Metar Taf Metar & Taf Last 4 Metars F.Rules Stats Wind Profile Meteogram Temp Stats Airport Information Weather charts Add Link Nearby VenuesMetar ALERT Operation Metar Decoded Social comments

AIRNAV info for KSTP